Time;durP1;ratioP1;P1;durP2;ratioP2;P2;SDS_P1;SDS_P2;PMS_P1;PMS_P2;Temp;Humidity;BMP_temperature;BMP_pressure;BME280_temperature;BME280_humidity;BME280_pressure;Samples;Min_cycle;Max_cycle;Signal;HPM_P1;HPM_P2
2023/04/15 00:00:06;;;;;;;32.10;20.40;;;9.10;99.90;;;;;;5035458;28;20208;-74
2023/04/15 00:02:31;;;;;;;31.30;21.07;;;9.10;99.90;;;;;;5038635;28;20211;-76
2023/04/15 00:04:57;;;;;;;31.40;19.63;;;9.10;99.90;;;;;;5038956;28;20211;-73
2023/04/15 00:07:22;;;;;;;28.10;19.60;;;9.10;99.90;;;;;;5037422;28;20223;-73
2023/04/15 00:09:48;;;;;;;28.87;18.67;;;9.10;99.90;;;;;;5033352;28;20180;-73
2023/04/15 00:12:13;;;;;;;31.23;20.93;;;9.10;99.90;;;;;;5032173;28;20706;-74
2023/04/15 00:14:39;;;;;;;33.13;21.77;;;9.00;99.90;;;;;;5046716;28;20212;-74
2023/04/15 00:17:05;;;;;;;33.47;20.53;;;9.00;99.90;;;;;;5038456;28;20635;-74
2023/04/15 00:19:31;;;;;;;33.40;21.37;;;9.00;99.90;;;;;;5046613;28;20321;-74
2023/04/15 00:21:56;;;;;;;32.57;21.07;;;9.10;99.90;;;;;;5057926;28;20202;-72
2023/04/15 00:24:23;;;;;;;31.97;21.13;;;9.00;99.90;;;;;;5047335;28;20655;-73
2023/04/15 00:26:48;;;;;;;32.33;21.47;;;9.10;99.90;;;;;;5040399;28;20591;-74
2023/04/15 00:29:14;;;;;;;34.00;21.93;;;9.10;99.90;;;;;;5037937;28;20225;-74
2023/04/15 00:31:41;;;;;;;30.30;21.07;;;9.20;99.90;;;;;;5036927;28;20212;-74
2023/04/15 00:34:06;;;;;;;31.30;21.57;;;9.10;99.90;;;;;;5036379;28;20168;-74
2023/04/15 00:36:33;;;;;;;32.37;21.10;;;9.10;99.90;;;;;;5033796;28;20279;-74
2023/04/15 00:38:59;;;;;;;36.87;23.67;;;9.10;99.90;;;;;;5039552;28;20211;-73
2023/04/15 00:41:25;;;;;;;34.40;22.97;;;9.00;99.90;;;;;;5033619;28;20687;-73
2023/04/15 00:43:51;;;;;;;32.50;22.23;;;9.00;99.90;;;;;;5038731;28;20227;-74
2023/04/15 00:46:20;;;;;;;37.70;25.13;;;9.10;99.90;;;;;;5047465;28;20663;-74
2023/04/15 00:48:46;;;;;;;40.37;26.47;;;9.10;99.90;;;;;;5036628;28;20267;-74
2023/04/15 00:51:12;;;;;;;38.67;24.00;;;9.10;99.90;;;;;;5031300;28;20208;-74
2023/04/15 00:53:38;;;;;;;36.83;24.87;;;9.10;99.90;;;;;;5043465;28;20204;-74
2023/04/15 00:56:04;;;;;;;37.90;25.37;;;9.10;99.90;;;;;;5045437;28;20219;-74
2023/04/15 00:58:30;;;;;;;38.50;23.77;;;9.10;99.90;;;;;;5053429;28;20212;-74
2023/04/15 01:00:56;;;;;;;38.43;24.23;;;9.10;99.90;;;;;;5041128;28;20268;-74
2023/04/15 01:03:23;;;;;;;36.73;24.77;;;9.10;99.90;;;;;;5039657;28;20212;-74
2023/04/15 01:05:49;;;;;;;38.77;24.30;;;9.10;99.90;;;;;;5036828;28;20749;-73
2023/04/15 01:08:15;;;;;;;38.10;25.70;;;9.10;99.90;;;;;;5035906;28;20211;-73
2023/04/15 01:10:41;;;;;;;41.23;25.47;;;9.00;99.90;;;;;;5035667;28;20227;-74
2023/04/15 01:13:06;;;;;;;38.37;24.03;;;9.10;99.90;;;;;;5035516;28;20176;-73
2023/04/15 01:15:34;;;;;;;41.83;26.43;;;9.10;99.90;;;;;;5038489;28;20195;-73
2023/04/15 01:18:01;;;;;;;45.07;26.90;;;9.10;99.90;;;;;;5033294;28;20269;-74
2023/04/15 01:20:28;;;;;;;47.63;28.57;;;9.10;99.90;;;;;;5035675;28;20252;-74
2023/04/15 01:22:55;;;;;;;38.57;25.60;;;9.10;99.90;;;;;;5032400;28;20256;-73
2023/04/15 01:25:31;;;;;;;40.23;26.20;;;9.10;99.90;;;;;;5039650;28;20688;-72
2023/04/15 01:27:56;;;;;;;49.50;29.80;;;9.10;99.90;;;;;;5030942;28;20211;-72
2023/04/15 01:30:22;;;;;;;46.63;27.83;;;9.10;99.90;;;;;;5030510;28;20208;-74
2023/04/15 01:32:48;;;;;;;42.73;25.97;;;9.10;99.90;;;;;;5039837;28;20217;-74
2023/04/15 01:35:13;;;;;;;44.47;28.50;;;9.10;99.90;;;;;;5039240;28;20227;-74
2023/04/15 01:37:39;;;;;;;42.37;27.10;;;9.10;99.90;;;;;;5037558;28;20261;-73
2023/04/15 01:40:06;;;;;;;44.93;27.83;;;9.10;99.90;;;;;;5037993;28;20238;-72
2023/04/15 01:42:32;;;;;;;50.93;28.77;;;9.10;99.90;;;;;;5037705;28;20207;-73
2023/04/15 01:44:58;;;;;;;54.90;30.83;;;9.10;99.90;;;;;;5040603;28;20230;-75
2023/04/15 01:47:23;;;;;;;48.23;30.03;;;9.10;99.90;;;;;;5035353;28;20216;-72
2023/04/15 01:49:49;;;;;;;45.90;27.43;;;9.10;99.90;;;;;;5040523;28;20254;-74
2023/04/15 01:52:15;;;;;;;51.17;29.03;;;9.10;99.90;;;;;;5033960;28;20656;-74
2023/04/15 01:54:41;;;;;;;45.67;29.07;;;9.10;99.90;;;;;;5034074;28;20267;-74
2023/04/15 01:57:07;;;;;;;53.47;31.07;;;9.10;99.90;;;;;;5037394;28;20211;-73
2023/04/15 01:59:32;;;;;;;44.77;27.40;;;9.10;99.90;;;;;;5032317;28;20702;-75
2023/04/15 02:01:58;;;;;;;50.00;28.50;;;9.10;99.90;;;;;;5032433;28;20875;-72
2023/04/15 02:04:24;;;;;;;45.87;27.60;;;9.10;99.90;;;;;;5038639;28;20350;-73
2023/04/15 02:06:50;;;;;;;47.63;27.97;;;9.10;99.90;;;;;;5031627;28;20327;-73
2023/04/15 02:09:15;;;;;;;45.53;27.67;;;9.10;99.90;;;;;;5035210;28;20233;-74
2023/04/15 02:11:43;;;;;;;50.10;27.63;;;9.10;99.90;;;;;;5040955;28;20563;-71
2023/04/15 02:14:09;;;;;;;45.60;26.87;;;9.10;99.90;;;;;;5040075;28;20217;-74
2023/04/15 02:16:35;;;;;;;47.80;28.00;;;9.10;99.90;;;;;;5038115;28;20231;-73
2023/04/15 02:19:01;;;;;;;44.07;27.93;;;9.10;99.90;;;;;;5043420;28;20188;-73
2023/04/15 02:21:26;;;;;;;47.07;28.27;;;9.00;99.90;;;;;;5039843;28;20173;-73
2023/04/15 02:23:55;;;;;;;49.03;28.33;;;9.10;99.90;;;;;;5037675;28;20216;-74
2023/04/15 02:26:21;;;;;;;48.07;27.63;;;9.10;99.90;;;;;;5033874;28;20690;-74
2023/04/15 02:28:48;;;;;;;50.27;29.80;;;9.10;99.90;;;;;;5046619;28;20266;-74
2023/04/15 02:31:13;;;;;;;44.27;26.70;;;9.10;99.90;;;;;;5051848;28;20274;-74
2023/04/15 02:33:39;;;;;;;50.10;27.77;;;9.10;99.90;;;;;;5037946;28;20260;-72
2023/04/15 02:36:06;;;;;;;45.03;27.07;;;9.10;99.90;;;;;;5042412;28;20207;-74
2023/04/15 02:38:32;;;;;;;44.60;26.63;;;9.20;99.90;;;;;;5047632;28;20204;-74
2023/04/15 02:40:57;;;;;;;44.67;26.33;;;9.10;99.90;;;;;;5041222;28;20306;-74
2023/04/15 02:43:23;;;;;;;47.00;27.43;;;9.10;99.90;;;;;;5040100;28;20208;-74
2023/04/15 02:45:50;;;;;;;51.67;29.07;;;9.10;99.90;;;;;;5036842;28;20283;-75
2023/04/15 02:48:17;;;;;;;46.77;26.70;;;9.20;99.90;;;;;;5041845;28;20215;-75
2023/04/15 02:50:43;;;;;;;50.37;29.00;;;9.10;99.90;;;;;;5043656;28;20758;-73
2023/04/15 02:53:09;;;;;;;43.50;27.10;;;9.10;99.90;;;;;;5051649;28;20295;-73
2023/04/15 02:55:35;;;;;;;45.50;27.70;;;9.20;99.90;;;;;;5043953;28;20698;-73
2023/04/15 02:58:00;;;;;;;48.20;27.10;;;9.20;99.90;;;;;;5039010;28;20192;-73
2023/04/15 03:00:27;;;;;;;44.57;27.37;;;9.20;99.90;;;;;;5042918;28;20176;-71
2023/04/15 03:02:58;;;;;;;48.03;26.63;;;9.20;99.90;;;;;;5038321;28;20207;-75
2023/04/15 03:05:24;;;;;;;45.83;27.00;;;9.20;99.90;;;;;;5041603;28;20213;-74
2023/04/15 03:07:50;;;;;;;46.33;26.90;;;9.20;99.90;;;;;;5052944;28;20235;-73
2023/04/15 03:10:16;;;;;;;45.60;26.90;;;9.20;99.90;;;;;;5047893;28;20180;-74
2023/04/15 03:12:42;;;;;;;50.70;28.07;;;9.30;99.90;;;;;;5037557;28;20700;-76
2023/04/15 03:15:08;;;;;;;47.93;26.67;;;9.20;99.90;;;;;;5037748;28;20203;-74
2023/04/15 03:17:34;;;;;;;50.03;26.90;;;9.20;99.90;;;;;;5034310;28;20235;-71
2023/04/15 03:20:05;;;;;;;45.37;26.80;;;9.30;99.90;;;;;;5048126;28;20295;-73
2023/04/15 03:22:31;;;;;;;43.00;26.43;;;9.20;99.90;;;;;;5037597;28;20212;-73
2023/04/15 03:24:57;;;;;;;45.27;26.27;;;9.20;99.90;;;;;;5058795;23;20187;-78
2023/04/15 03:27:23;;;;;;;46.47;27.07;;;9.30;99.90;;;;;;5051370;28;20223;-76
2023/04/15 03:29:48;;;;;;;43.50;26.40;;;9.30;99.90;;;;;;5049044;28;20212;-77
2023/04/15 03:32:14;;;;;;;45.50;26.77;;;9.30;99.90;;;;;;5051192;28;20207;-77
2023/04/15 03:34:41;;;;;;;43.00;25.63;;;9.30;99.90;;;;;;5047239;28;20258;-74
2023/04/15 03:37:07;;;;;;;41.83;25.03;;;9.30;99.90;;;;;;5039107;28;20176;-75
2023/04/15 03:39:33;;;;;;;46.47;26.07;;;9.20;99.90;;;;;;5038265;28;20177;-74
2023/04/15 03:41:58;;;;;;;41.50;26.33;;;9.20;99.90;;;;;;5044640;28;20212;-75
2023/04/15 03:44:26;;;;;;;43.80;26.43;;;9.30;99.90;;;;;;5038283;28;20235;-75
2023/04/15 03:46:52;;;;;;;43.27;26.87;;;9.30;99.90;;;;;;5037387;28;20220;-75
2023/04/15 03:49:18;;;;;;;43.50;26.03;;;9.30;99.90;;;;;;5036967;28;20235;-75
2023/04/15 03:51:44;;;;;;;39.23;25.23;;;9.30;99.90;;;;;;5035760;28;20192;-75
2023/04/15 03:54:10;;;;;;;43.33;25.53;;;9.30;99.90;;;;;;5045358;28;20200;-73
2023/04/15 03:56:36;;;;;;;45.93;25.87;;;9.30;99.90;;;;;;5036253;28;20204;-74
2023/04/15 03:59:02;;;;;;;46.53;29.60;;;9.30;99.90;;;;;;5040566;28;20450;-74
2023/04/15 04:01:27;;;;;;;44.20;26.60;;;9.30;99.90;;;;;;5034766;28;20748;-75
2023/04/15 04:03:53;;;;;;;40.67;24.07;;;9.40;99.90;;;;;;5032590;28;20181;-75
2023/04/15 04:06:19;;;;;;;44.50;24.73;;;9.40;99.90;;;;;;5044029;28;20688;-75
2023/04/15 04:08:45;;;;;;;46.07;25.43;;;9.40;99.90;;;;;;5041205;28;20393;-74
2023/04/15 04:11:10;;;;;;;38.97;23.50;;;9.40;99.90;;;;;;5039034;28;20200;-75
2023/04/15 04:13:36;;;;;;;40.57;24.53;;;9.40;99.90;;;;;;5038759;28;20357;-76
2023/04/15 04:16:03;;;;;;;39.37;24.60;;;9.30;99.90;;;;;;5058916;28;20195;-76
2023/04/15 04:18:30;;;;;;;41.43;26.13;;;9.30;99.90;;;;;;5042206;28;20255;-75
2023/04/15 04:20:56;;;;;;;42.40;24.63;;;9.30;99.90;;;;;;5036522;28;20208;-75
2023/04/15 04:23:21;;;;;;;35.77;22.80;;;9.40;99.90;;;;;;5043403;28;20205;-75
2023/04/15 04:25:47;;;;;;;37.33;24.47;;;9.40;99.90;;;;;;5041505;28;20220;-73
2023/04/15 04:28:12;;;;;;;38.90;25.17;;;9.40;99.90;;;;;;5040135;28;20200;-75
2023/04/15 04:30:38;;;;;;;36.37;22.90;;;9.40;99.90;;;;;;5042838;28;20259;-76
2023/04/15 04:33:04;;;;;;;38.90;22.73;;;9.40;99.90;;;;;;5035989;28;20204;-75
2023/04/15 04:35:32;;;;;;;39.93;24.27;;;9.40;99.90;;;;;;5040682;28;20208;-75
2023/04/15 04:37:58;;;;;;;41.53;23.77;;;9.40;99.90;;;;;;5043697;28;20215;-75
2023/04/15 04:40:23;;;;;;;36.90;23.33;;;9.40;99.90;;;;;;5042245;28;20623;-75
2023/04/15 04:42:49;;;;;;;37.90;21.80;;;9.40;99.90;;;;;;5040493;28;20173;-73
2023/04/15 04:45:14;;;;;;;43.57;23.77;;;9.40;99.90;;;;;;5046678;28;20286;-75
2023/04/15 04:47:40;;;;;;;36.37;24.13;;;9.40;99.90;;;;;;5050195;28;20222;-75
2023/04/15 04:50:07;;;;;;;36.17;22.80;;;9.40;99.90;;;;;;5041366;28;20718;-74
2023/04/15 04:52:32;;;;;;;37.73;23.30;;;9.40;99.90;;;;;;5045074;28;20287;-75
2023/04/15 04:54:58;;;;;;;37.93;24.00;;;9.40;99.90;;;;;;5043604;28;20275;-75
2023/04/15 04:57:23;;;;;;;37.03;23.40;;;9.50;99.90;;;;;;5043858;28;20632;-75
2023/04/15 04:59:49;;;;;;;38.50;24.33;;;9.50;99.90;;;;;;5041714;28;20215;-73
2023/04/15 05:02:14;;;;;;;37.07;22.77;;;9.50;99.90;;;;;;5048725;28;20210;-75
2023/04/15 05:04:40;;;;;;;37.10;22.83;;;9.50;99.90;;;;;;5037432;28;20582;-75
2023/04/15 05:07:07;;;;;;;39.27;23.90;;;9.60;99.90;;;;;;5035623;28;20239;-75
2023/04/15 05:09:34;;;;;;;40.80;23.50;;;9.60;99.90;;;;;;5057657;28;20172;-74
2023/04/15 05:12:00;;;;;;;38.63;21.93;;;9.60;99.90;;;;;;5043089;28;20204;-77
2023/04/15 05:14:26;;;;;;;33.00;22.40;;;9.60;99.90;;;;;;5042450;28;20226;-77
2023/04/15 05:16:51;;;;;;;35.80;23.03;;;9.60;99.90;;;;;;5042137;28;20590;-77
2023/04/15 05:19:17;;;;;;;36.40;23.27;;;9.60;99.90;;;;;;5047236;28;20176;-77
2023/04/15 05:21:43;;;;;;;35.27;21.13;;;9.60;99.90;;;;;;5049744;28;20219;-77
2023/04/15 05:24:08;;;;;;;29.20;19.90;;;9.60;99.90;;;;;;5042124;28;20234;-77
2023/04/15 05:26:34;;;;;;;34.40;21.93;;;9.70;99.90;;;;;;5049470;28;20222;-77
2023/04/15 05:28:59;;;;;;;34.67;20.83;;;9.60;99.90;;;;;;5044606;28;20211;-78
2023/04/15 05:31:25;;;;;;;29.57;20.27;;;9.60;99.90;;;;;;5048470;28;20261;-77
2023/04/15 05:33:51;;;;;;;30.83;19.73;;;9.70;99.90;;;;;;5048409;28;20172;-75
2023/04/15 05:36:16;;;;;;;31.00;20.23;;;9.70;99.90;;;;;;5049121;28;20208;-75
2023/04/15 05:38:42;;;;;;;32.13;19.63;;;9.70;99.90;;;;;;5045040;28;20207;-76
2023/04/15 05:41:08;;;;;;;28.17;18.30;;;9.70;99.90;;;;;;5048367;28;20623;-76
2023/04/15 05:43:33;;;;;;;26.83;18.50;;;9.70;99.90;;;;;;5038049;28;20578;-77
2023/04/15 05:45:59;;;;;;;28.33;17.63;;;9.70;99.90;;;;;;5039339;28;20282;-76
2023/04/15 05:48:25;;;;;;;28.70;19.43;;;9.70;99.90;;;;;;5050362;28;20767;-77
2023/04/15 05:50:50;;;;;;;26.47;17.90;;;9.80;99.90;;;;;;5046370;28;20696;-78
2023/04/15 05:53:16;;;;;;;25.93;18.50;;;9.80;99.90;;;;;;5046280;28;20314;-78
2023/04/15 05:55:42;;;;;;;28.47;18.03;;;9.80;99.90;;;;;;5046256;28;20211;-78
2023/04/15 05:58:07;;;;;;;27.87;17.40;;;9.90;99.90;;;;;;5047561;28;20670;-78
2023/04/15 06:00:33;;;;;;;27.80;17.53;;;9.90;99.90;;;;;;5047836;28;20179;-77
2023/04/15 06:02:59;;;;;;;26.80;17.97;;;9.90;99.90;;;;;;5048764;28;20725;-78
2023/04/15 06:05:25;;;;;;;30.47;17.37;;;10.00;99.90;;;;;;5047673;28;20219;-78
2023/04/15 06:07:51;;;;;;;25.63;17.03;;;10.10;99.90;;;;;;5056077;28;20222;-78
2023/04/15 06:10:17;;;;;;;25.10;17.77;;;10.20;99.90;;;;;;5048958;28;20550;-78
2023/04/15 06:12:43;;;;;;;26.63;17.03;;;10.20;99.90;;;;;;5047015;28;20176;-76
2023/04/15 06:15:09;;;;;;;24.63;16.00;;;10.20;99.90;;;;;;5043836;28;20218;-78
2023/04/15 06:17:35;;;;;;;26.00;16.93;;;10.30;99.90;;;;;;5070062;28;20419;-77
2023/04/15 06:20:01;;;;;;;24.63;17.20;;;10.30;99.90;;;;;;5046433;28;20269;-77
2023/04/15 06:22:27;;;;;;;25.47;15.20;;;10.30;99.90;;;;;;5051904;28;20234;-78
2023/04/15 06:24:53;;;;;;;25.50;15.67;;;10.30;99.90;;;;;;5045344;28;20203;-76
2023/04/15 06:27:19;;;;;;;22.63;15.87;;;10.30;99.90;;;;;;5049568;28;20211;-78
2023/04/15 06:29:45;;;;;;;20.23;15.67;;;10.30;99.90;;;;;;5043110;28;20215;-76
2023/04/15 06:32:11;;;;;;;26.67;15.90;;;10.40;99.90;;;;;;5046742;28;20687;-79
2023/04/15 06:34:37;;;;;;;23.20;17.00;;;10.40;99.90;;;;;;5048796;28;20413;-78
2023/04/15 06:37:03;;;;;;;21.07;15.07;;;10.40;99.90;;;;;;5044222;28;20198;-74
2023/04/15 06:39:28;;;;;;;20.93;14.40;;;10.40;99.90;;;;;;5047924;28;20176;-78
2023/04/15 06:41:55;;;;;;;23.30;14.90;;;10.50;99.90;;;;;;5068141;28;20227;-78
2023/04/15 06:44:21;;;;;;;19.20;13.17;;;10.60;99.90;;;;;;5055625;28;20210;-77
2023/04/15 06:46:46;;;;;;;18.87;14.00;;;10.60;99.90;;;;;;5046739;28;20220;-78
2023/04/15 06:49:12;;;;;;;20.47;14.27;;;10.70;99.90;;;;;;5045143;28;20180;-77
2023/04/15 06:51:37;;;;;;;17.63;13.43;;;10.70;99.90;;;;;;5054427;28;20634;-77
2023/04/15 06:54:05;;;;;;;21.20;13.77;;;10.80;99.90;;;;;;5053446;28;20219;-77
2023/04/15 06:56:34;;;;;;;17.37;13.00;;;10.90;99.90;;;;;;5054827;28;20714;-79
2023/04/15 06:59:00;;;;;;;19.30;12.30;;;11.00;99.90;;;;;;5048469;28;20225;-77
2023/04/15 07:01:26;;;;;;;16.27;12.00;;;11.00;99.90;;;;;;5069642;28;20214;-76
2023/04/15 07:03:51;;;;;;;17.43;12.10;;;11.20;99.90;;;;;;5047205;28;20547;-77
2023/04/15 07:06:17;;;;;;;18.10;11.67;;;11.30;99.90;;;;;;5043834;28;20203;-74
2023/04/15 07:08:43;;;;;;;14.80;10.73;;;11.40;99.90;;;;;;5046388;28;20199;-78
2023/04/15 07:11:09;;;;;;;15.33;10.77;;;11.70;99.90;;;;;;5048355;28;20208;-78
2023/04/15 07:13:35;;;;;;;13.33;9.80;;;11.60;99.90;;;;;;5041532;28;20206;-75
2023/04/15 07:16:01;;;;;;;16.83;11.13;;;11.60;99.90;;;;;;5044692;28;20196;-77
2023/04/15 07:18:26;;;;;;;16.63;10.47;;;11.60;99.90;;;;;;5044946;28;20676;-75
2023/04/15 07:20:52;;;;;;;13.87;9.87;;;11.50;99.90;;;;;;5051122;28;20211;-77
2023/04/15 07:23:18;;;;;;;14.47;10.27;;;11.50;99.90;;;;;;5051111;28;20203;-77
2023/04/15 07:25:43;;;;;;;17.30;10.73;;;11.30;99.90;;;;;;5045403;28;20215;-77
2023/04/15 07:28:09;;;;;;;14.53;10.17;;;11.30;99.90;;;;;;5042030;28;20586;-74
2023/04/15 07:30:35;;;;;;;17.57;11.03;;;11.20;99.90;;;;;;5047679;28;20168;-78
2023/04/15 07:33:01;;;;;;;16.90;10.20;;;11.10;99.90;;;;;;5048400;28;20201;-77
2023/04/15 07:35:28;;;;;;;14.47;9.97;;;10.90;99.90;;;;;;5046700;28;20652;-77
2023/04/15 07:37:53;;;;;;;14.03;11.07;;;10.80;99.90;;;;;;5044498;28;20203;-77
2023/04/15 07:40:19;;;;;;;12.97;10.57;;;10.70;99.90;;;;;;5043013;28;20172;-77
2023/04/15 07:42:47;;;;;;;15.73;11.07;;;10.70;99.90;;;;;;5040878;28;20181;-76
2023/04/15 07:45:12;;;;;;;14.90;11.70;;;10.60;99.90;;;;;;5044949;28;20209;-77
2023/04/15 07:47:39;;;;;;;14.43;11.60;;;10.60;99.90;;;;;;5044101;28;20698;-78
2023/04/15 07:50:06;;;;;;;16.70;11.53;;;10.60;99.90;;;;;;5042771;28;20808;-77
2023/04/15 07:52:37;;;;;;;16.90;11.53;;;10.60;99.90;;;;;;5044733;28;20211;-78
2023/04/15 07:55:10;;;;;;;15.27;11.27;;;10.70;99.90;;;;;;5039262;28;20243;-78
2023/04/15 07:57:36;;;;;;;17.87;11.97;;;10.60;99.90;;;;;;5044534;28;20270;-77
2023/04/15 08:00:06;;;;;;;17.87;12.00;;;10.50;99.90;;;;;;5045878;28;20227;-78
2023/04/15 08:02:32;;;;;;;14.83;11.07;;;10.50;99.90;;;;;;5045490;28;20200;-77
2023/04/15 08:04:58;;;;;;;17.87;12.30;;;10.50;99.90;;;;;;5045739;28;20212;-77
2023/04/15 08:07:24;;;;;;;15.20;11.67;;;10.50;99.90;;;;;;5049438;28;20280;-77
2023/04/15 08:09:50;;;;;;;16.23;11.47;;;10.50;99.90;;;;;;5044424;28;20183;-77
2023/04/15 08:12:16;;;;;;;16.37;13.07;;;10.60;99.90;;;;;;5054209;28;20301;-77
2023/04/15 08:14:41;;;;;;;15.10;12.27;;;10.50;99.90;;;;;;5045508;28;20288;-77
2023/04/15 08:17:07;;;;;;;15.63;12.97;;;10.50;99.90;;;;;;5039634;28;20230;-77
2023/04/15 08:19:33;;;;;;;16.13;11.87;;;10.60;99.90;;;;;;5044135;28;20208;-77
2023/04/15 08:21:58;;;;;;;18.47;12.40;;;10.50;99.90;;;;;;5045693;28;20210;-73
2023/04/15 08:24:25;;;;;;;18.80;13.33;;;10.50;99.90;;;;;;5045354;28;20222;-78
2023/04/15 08:26:51;;;;;;;15.60;11.77;;;10.50;99.90;;;;;;5041337;28;20216;-77
2023/04/15 08:29:17;;;;;;;16.77;12.93;;;10.50;99.90;;;;;;5039321;28;20204;-76
2023/04/15 08:31:43;;;;;;;18.43;12.57;;;10.50;99.90;;;;;;5048237;28;20201;-77
2023/04/15 08:34:11;;;;;;;17.63;13.00;;;10.50;99.90;;;;;;5045261;28;20244;-76
2023/04/15 08:36:36;;;;;;;15.37;12.53;;;10.50;99.90;;;;;;5044001;28;20203;-76
2023/04/15 08:39:03;;;;;;;17.47;13.03;;;10.60;99.90;;;;;;5040558;28;20216;-78
2023/04/15 08:41:38;;;;;;;17.07;13.00;;;10.60;99.90;;;;;;5049896;28;20291;-77
2023/04/15 08:44:05;;;;;;;16.13;13.13;;;10.60;99.90;;;;;;5048263;28;20238;-79
2023/04/15 08:46:33;;;;;;;19.67;13.10;;;10.70;99.90;;;;;;5049747;28;20219;-77
2023/04/15 08:49:02;;;;;;;14.33;12.23;;;10.70;99.90;;;;;;5049129;28;20650;-77
2023/04/15 08:51:28;;;;;;;18.23;12.33;;;10.70;99.90;;;;;;5041782;28;20204;-78
2023/04/15 08:53:54;;;;;;;18.40;13.33;;;10.70;99.90;;;;;;5039415;28;20258;-78
2023/04/15 08:56:24;;;;;;;16.03;13.30;;;10.80;99.90;;;;;;5040404;28;20627;-78
2023/04/15 08:58:50;;;;;;;16.10;13.20;;;10.60;99.90;;;;;;5038470;28;20208;-78
2023/04/15 09:01:15;;;;;;;15.67;13.33;;;10.70;99.90;;;;;;5043730;28;20185;-77
2023/04/15 09:03:41;;;;;;;17.53;12.83;;;10.70;99.90;;;;;;5045087;28;20168;-78
2023/04/15 09:06:08;;;;;;;15.37;13.03;;;10.60;99.90;;;;;;5037232;28;20212;-78
2023/04/15 09:08:34;;;;;;;17.87;12.77;;;10.60;99.90;;;;;;5037865;28;20212;-78
2023/04/15 09:11:01;;;;;;;23.57;14.17;;;10.60;99.90;;;;;;5051735;28;20718;-77
2023/04/15 09:13:28;;;;;;;18.60;13.17;;;10.70;99.90;;;;;;5043542;28;20678;-76
2023/04/15 09:15:54;;;;;;;16.93;13.83;;;10.70;99.90;;;;;;5049629;28;20620;-74
2023/04/15 09:18:28;;;;;;;17.40;12.70;;;10.70;99.90;;;;;;5044795;28;20852;-75
2023/04/15 09:20:54;;;;;;;16.67;13.13;;;10.60;99.90;;;;;;5041429;28;20214;-76
2023/04/15 09:23:20;;;;;;;16.67;13.03;;;10.80;99.90;;;;;;5039188;28;20208;-75
2023/04/15 09:25:46;;;;;;;18.97;13.93;;;10.70;99.90;;;;;;5063746;23;20223;-74
2023/04/15 09:28:11;;;;;;;16.33;13.20;;;10.80;99.90;;;;;;5049396;28;20245;-73
2023/04/15 09:30:37;;;;;;;18.20;13.03;;;10.80;99.90;;;;;;5049016;28;20178;-74
2023/04/15 09:33:06;;;;;;;15.23;11.90;;;10.80;99.90;;;;;;5050286;28;20199;-74
2023/04/15 09:35:33;;;;;;;19.10;13.43;;;10.70;99.90;;;;;;5048485;28;20225;-74
2023/04/15 09:38:08;;;;;;;16.63;12.27;;;10.80;99.90;;;;;;5048758;28;20208;-74
2023/04/15 09:40:39;;;;;;;18.67;13.27;;;10.80;99.90;;;;;;5050363;28;20206;-74
2023/04/15 09:43:06;;;;;;;18.53;13.83;;;10.70;99.90;;;;;;5047834;28;20175;-72
2023/04/15 09:45:34;;;;;;;16.60;12.67;;;10.80;99.90;;;;;;5049592;28;20555;-75
2023/04/15 09:48:22;;;;;;;19.33;13.90;;;10.80;99.90;;;;;;5049934;28;20222;-74
2023/04/15 09:50:49;;;;;;;17.33;12.10;;;10.80;99.90;;;;;;5050144;28;20204;-74
2023/04/15 09:53:19;;;;;;;15.83;12.60;;;10.80;99.90;;;;;;5047213;28;20212;-74
2023/04/15 09:55:48;;;;;;;18.07;13.10;;;10.80;99.90;;;;;;5041107;28;20210;-75
2023/04/15 09:58:27;;;;;;;14.23;11.93;;;10.80;99.90;;;;;;5048389;28;20267;-74
2023/04/15 10:00:55;;;;;;;15.40;12.60;;;10.80;99.90;;;;;;5047469;28;20180;-74
2023/04/15 10:03:25;;;;;;;15.50;12.27;;;10.80;99.90;;;;;;5042339;28;20211;-75
2023/04/15 10:05:55;;;;;;;16.83;13.43;;;10.80;99.90;;;;;;5046720;28;20396;-73
2023/04/15 10:08:26;;;;;;;16.13;12.90;;;10.80;99.90;;;;;;5038331;28;20330;-74
2023/04/15 10:10:52;;;;;;;17.43;12.73;;;10.80;99.90;;;;;;5044041;28;20321;-73
2023/04/15 10:13:21;;;;;;;15.37;12.20;;;10.80;99.90;;;;;;5046351;28;20176;-75
2023/04/15 10:16:04;;;;;;;14.90;12.17;;;10.90;99.90;;;;;;5048780;28;20199;-75
2023/04/15 10:18:34;;;;;;;16.33;12.67;;;10.80;99.90;;;;;;5065279;28;20207;-75
2023/04/15 10:21:00;;;;;;;17.53;11.67;;;10.90;99.90;;;;;;5047713;28;20286;-73
2023/04/15 10:23:27;;;;;;;13.80;12.13;;;10.80;99.90;;;;;;5047405;28;20653;-74
2023/04/15 10:25:53;;;;;;;17.40;12.37;;;10.80;99.90;;;;;;5048811;28;20268;-72
2023/04/15 10:28:21;;;;;;;14.70;12.67;;;10.80;99.90;;;;;;5049804;28;20286;-74
2023/04/15 10:30:48;;;;;;;17.77;13.43;;;10.80;99.90;;;;;;5045604;28;20256;-73
2023/04/15 10:33:17;;;;;;;15.77;13.17;;;10.80;99.90;;;;;;5042529;28;20201;-74
2023/04/15 10:35:43;;;;;;;14.87;12.37;;;10.80;99.90;;;;;;5042101;28;20682;-74
2023/04/15 10:38:32;;;;;;;16.73;12.80;;;10.80;99.90;;;;;;5047850;28;20203;-72
2023/04/15 10:41:30;;;;;;;19.17;12.97;;;10.80;99.90;;;;;;5048460;28;20206;-74
2023/04/15 10:43:59;;;;;;;17.97;13.47;;;10.90;99.90;;;;;;5049930;28;20681;-74
2023/04/15 10:46:42;;;;;;;19.10;12.80;;;10.90;99.90;;;;;;5048004;28;20777;-74
2023/04/15 10:49:09;;;;;;;16.87;13.07;;;11.00;99.90;;;;;;5050908;28;20172;-72
2023/04/15 10:51:40;;;;;;;15.13;11.47;;;11.00;99.90;;;;;;5049396;28;20182;-72
2023/04/15 10:54:14;;;;;;;16.37;11.87;;;11.00;99.90;;;;;;5050582;28;20199;-73
2023/04/15 10:56:50;;;;;;;15.53;10.50;;;11.00;99.90;;;;;;5046145;28;20212;-73
2023/04/15 10:59:16;;;;;;;15.73;11.43;;;11.00;99.90;;;;;;5048676;28;20693;-73
2023/04/15 11:02:02;;;;;;;14.73;12.23;;;11.00;99.90;;;;;;5047348;28;20208;-74
2023/04/15 11:04:53;;;;;;;17.87;13.63;;;11.00;99.90;;;;;;5046032;28;20295;-74
2023/04/15 11:07:57;;;;;;;14.00;12.07;;;11.00;99.90;;;;;;5052309;28;20218;-72
2023/04/15 11:10:28;;;;;;;17.47;12.57;;;11.10;99.90;;;;;;5050203;28;20560;-74
2023/04/15 11:12:58;;;;;;;14.73;12.60;;;11.10;99.90;;;;;;5049884;28;20180;-74
2023/04/15 11:15:32;;;;;;;14.93;11.37;;;11.00;99.90;;;;;;5049006;28;20215;-74
2023/04/15 11:18:23;;;;;;;17.90;11.87;;;11.00;99.90;;;;;;5049331;28;20207;-74
2023/04/15 11:20:50;;;;;;;14.83;11.93;;;11.00;99.90;;;;;;5047495;28;20212;-74
2023/04/15 11:23:38;;;;;;;16.30;12.70;;;11.00;99.90;;;;;;5049035;28;20207;-74
2023/04/15 11:26:08;;;;;;;15.77;12.60;;;11.00;99.90;;;;;;5046135;28;20249;-73
2023/04/15 11:28:35;;;;;;;14.90;12.30;;;11.10;99.90;;;;;;5045885;28;20216;-74
2023/04/15 11:31:15;;;;;;;17.43;13.27;;;11.00;99.90;;;;;;5048928;28;20190;-74
2023/04/15 11:33:46;;;;;;;14.03;12.20;;;11.00;99.90;;;;;;5049061;28;20615;-74
2023/04/15 11:36:12;;;;;;;16.33;12.07;;;11.10;99.90;;;;;;5046240;28;20216;-71
2023/04/15 11:38:43;;;;;;;15.00;12.43;;;11.10;99.90;;;;;;5049092;28;20218;-74
2023/04/15 11:41:08;;;;;;;13.77;11.37;;;11.10;99.90;;;;;;5047762;28;20290;-74
2023/04/15 11:43:34;;;;;;;14.47;11.67;;;11.00;99.90;;;;;;5051159;28;20302;-74
2023/04/15 11:46:01;;;;;;;14.80;11.10;;;11.00;99.90;;;;;;5052115;28;20200;-73
2023/04/15 11:48:29;;;;;;;14.47;11.60;;;11.00;99.90;;;;;;5047722;28;20203;-74
2023/04/15 11:50:57;;;;;;;15.33;12.40;;;11.00;99.90;;;;;;5046885;28;20211;-73
2023/04/15 11:53:24;;;;;;;15.93;11.97;;;11.00;99.90;;;;;;5048269;28;20733;-73
2023/04/15 11:55:51;;;;;;;16.20;11.40;;;11.10;99.90;;;;;;5045642;28;20267;-73
2023/04/15 11:58:25;;;;;;;15.07;12.23;;;11.10;99.90;;;;;;5048657;28;20176;-74
2023/04/15 12:00:54;;;;;;;18.13;11.17;;;11.00;99.90;;;;;;5047144;28;20233;-74
2023/04/15 12:03:36;;;;;;;16.07;12.00;;;11.00;99.90;;;;;;5042192;28;20266;-74
2023/04/15 12:06:05;;;;;;;15.13;12.13;;;11.00;99.90;;;;;;5046359;28;20211;-74
2023/04/15 12:08:55;;;;;;;13.27;11.73;;;11.10;99.90;;;;;;5050386;28;20281;-74
2023/04/15 12:11:42;;;;;;;16.20;11.60;;;11.10;99.90;;;;;;5045711;28;20242;-74
2023/04/15 12:14:11;;;;;;;14.70;12.13;;;11.10;99.90;;;;;;5057077;28;20240;-73
2023/04/15 12:16:40;;;;;;;13.37;11.23;;;11.10;99.90;;;;;;5053796;28;20219;-74
2023/04/15 12:19:11;;;;;;;14.77;12.03;;;11.10;99.90;;;;;;5051390;28;20601;-74
2023/04/15 12:21:40;;;;;;;16.63;12.27;;;11.20;99.90;;;;;;5046867;28;20539;-74
2023/04/15 12:24:07;;;;;;;15.27;12.10;;;11.20;99.90;;;;;;5050297;28;20219;-74
2023/04/15 12:26:36;;;;;;;14.83;11.90;;;11.20;99.90;;;;;;5048569;28;20306;-74
2023/04/15 12:29:04;;;;;;;17.87;12.53;;;11.20;99.90;;;;;;5043393;28;20737;-72
2023/04/15 12:31:30;;;;;;;15.10;11.67;;;11.30;99.90;;;;;;5051432;28;20274;-73